createdAt,value
2018-07-27T00:00:09.727Z,5.50
2018-07-27T00:02:37.825Z,5.80
2018-07-27T00:05:06.136Z,5.77
2018-07-27T00:07:34.656Z,5.20
2018-07-27T00:10:02.740Z,5.83
2018-07-27T00:12:30.848Z,5.37
2018-07-27T00:14:59.000Z,6.17
2018-07-27T00:17:27.067Z,6.80
2018-07-27T00:19:55.129Z,6.30
2018-07-27T00:22:23.236Z,6.10
2018-07-27T00:24:51.606Z,5.90
2018-07-27T00:27:19.869Z,6.07
2018-07-27T00:29:47.942Z,6.40
2018-07-27T00:32:16.036Z,6.10
2018-07-27T00:34:44.105Z,6.33
2018-07-27T00:37:12.192Z,6.00
2018-07-27T00:39:40.263Z,6.60
2018-07-27T00:42:08.342Z,5.80
2018-07-27T00:44:36.416Z,6.40
2018-07-27T00:47:04.957Z,6.60
2018-07-27T00:49:33.221Z,6.80
2018-07-27T00:52:01.369Z,6.30
2018-07-27T00:54:29.601Z,7.47
2018-07-27T00:56:57.668Z,6.40
2018-07-27T00:59:26.025Z,6.50
2018-07-27T01:01:54.313Z,5.90
2018-07-27T01:04:22.385Z,6.57
2018-07-27T01:06:50.460Z,6.37
2018-07-27T01:09:18.775Z,5.93
2018-07-27T01:11:46.820Z,6.27
2018-07-27T01:14:14.905Z,6.13
2018-07-27T01:16:43.543Z,6.50
2018-07-27T01:19:11.620Z,6.30
2018-07-27T01:21:39.761Z,6.70
2018-07-27T01:24:07.810Z,6.73
2018-07-27T01:26:36.005Z,6.90
2018-07-27T01:29:04.404Z,6.90
2018-07-27T01:31:32.512Z,7.60
2018-07-27T01:34:00.621Z,6.77
2018-07-27T01:36:28.781Z,7.90
2018-07-27T01:38:56.829Z,6.87
2018-07-27T01:41:24.900Z,7.00
2018-07-27T01:43:52.972Z,7.60
2018-07-27T01:46:21.356Z,7.27
2018-07-27T01:48:49.432Z,6.73
2018-07-27T01:51:17.502Z,6.80
2018-07-27T01:53:45.584Z,6.80
2018-07-27T01:56:13.652Z,6.87
2018-07-27T01:58:41.729Z,6.80
2018-07-27T02:01:09.799Z,6.57
2018-07-27T02:03:37.863Z,7.00
2018-07-27T02:06:06.010Z,7.00
2018-07-27T02:08:34.260Z,6.73
2018-07-27T02:11:02.328Z,7.00
2018-07-27T02:13:30.724Z,6.73
2018-07-27T02:15:58.800Z,6.93
2018-07-27T02:18:26.906Z,7.30
2018-07-27T02:20:55.197Z,6.77
2018-07-27T02:23:24.253Z,7.30
2018-07-27T02:25:52.314Z,7.60
2018-07-27T02:28:20.372Z,7.00
2018-07-27T02:30:48.436Z,7.17
2018-07-27T02:33:16.521Z,7.07
2018-07-27T02:35:44.576Z,6.67
2018-07-27T02:38:12.641Z,6.73
2018-07-27T02:40:40.724Z,7.37
2018-07-27T02:43:08.812Z,6.97
2018-07-27T02:45:36.947Z,6.90
2018-07-27T02:48:05.006Z,6.77
2018-07-27T02:50:33.093Z,6.87
2018-07-27T02:53:01.165Z,6.73
2018-07-27T02:55:29.210Z,6.97
2018-07-27T02:57:57.266Z,8.10
2018-07-27T03:00:25.325Z,6.57
2018-07-27T03:02:53.421Z,7.70
2018-07-27T03:05:21.518Z,6.70
2018-07-27T03:07:49.606Z,8.00
2018-07-27T03:10:17.645Z,7.90
2018-07-27T03:12:45.757Z,6.93
2018-07-27T03:15:13.821Z,7.90
2018-07-27T03:17:41.966Z,7.60
2018-07-27T03:20:10.085Z,8.47
2018-07-27T03:22:38.157Z,8.40
2018-07-27T03:25:06.538Z,7.40
2018-07-27T03:27:34.831Z,7.40
2018-07-27T03:30:03.193Z,7.27
2018-07-27T03:32:31.271Z,6.87
2018-07-27T03:34:59.364Z,7.03
2018-07-27T03:37:29.094Z,7.97
2018-07-27T03:39:57.155Z,7.07
2018-07-27T03:42:25.652Z,7.53
2018-07-27T03:44:53.760Z,7.70
2018-07-27T03:47:21.827Z,8.40
2018-07-27T03:49:50.148Z,7.30
2018-07-27T03:52:18.284Z,8.23
2018-07-27T03:54:46.413Z,7.60
2018-07-27T03:57:14.496Z,8.27
2018-07-27T03:59:42.552Z,7.87
2018-07-27T04:02:10.737Z,6.90
2018-07-27T04:04:39.021Z,7.77
2018-07-27T04:07:07.106Z,7.70
2018-07-27T04:09:35.212Z,8.10
2018-07-27T04:12:03.312Z,7.93
2018-07-27T04:14:31.385Z,7.37
2018-07-27T04:16:59.572Z,7.83
2018-07-27T04:19:27.748Z,7.07
2018-07-27T04:21:55.885Z,7.43
2018-07-27T04:24:23.980Z,7.90
2018-07-27T04:26:52.161Z,7.87
2018-07-27T04:29:20.240Z,7.73
2018-07-27T04:31:48.425Z,7.80
2018-07-27T04:34:16.820Z,7.63
2018-07-27T04:36:44.989Z,8.00
2018-07-27T04:39:14.248Z,7.90
2018-07-27T04:41:42.389Z,7.43
2018-07-27T04:44:10.616Z,7.60
2018-07-27T04:46:38.681Z,7.73
2018-07-27T04:49:06.749Z,6.93
2018-07-27T04:51:34.796Z,7.40
2018-07-27T04:54:02.841Z,7.23
2018-07-27T04:56:30.984Z,9.10
2018-07-27T04:58:59.221Z,7.33
2018-07-27T05:01:27.319Z,8.03
2018-07-27T05:03:55.393Z,7.47
2018-07-27T05:06:23.506Z,7.50
2018-07-27T05:08:57.041Z,7.43
2018-07-27T05:11:25.100Z,7.40
2018-07-27T05:13:53.164Z,7.70
2018-07-27T05:16:21.241Z,7.60
2018-07-27T05:18:49.712Z,7.80
2018-07-27T05:21:17.789Z,7.43
2018-07-27T05:23:45.846Z,8.13
2018-07-27T05:26:13.973Z,7.60
2018-07-27T05:28:42.228Z,7.70
2018-07-27T05:31:10.313Z,7.40
2018-07-27T05:33:38.384Z,8.00
2018-07-27T05:36:06.912Z,7.20
2018-07-27T05:38:34.956Z,7.87
2018-07-27T05:41:03.065Z,7.83
2018-07-27T05:43:31.125Z,7.90
2018-07-27T05:45:59.229Z,7.87
2018-07-27T05:48:27.315Z,7.27
2018-07-27T05:50:55.409Z,7.23
2018-07-27T05:53:23.503Z,7.80
2018-07-27T05:55:51.579Z,8.03
2018-07-27T05:58:19.632Z,8.07
2018-07-27T06:00:47.725Z,8.20
2018-07-27T06:03:16.133Z,9.77
2018-07-27T06:05:44.204Z,8.23
2018-07-27T06:08:12.274Z,8.93
2018-07-27T06:10:40.336Z,8.23
2018-07-27T06:13:08.504Z,8.67
2018-07-27T06:15:36.550Z,7.77
2018-07-27T06:18:04.708Z,7.70
2018-07-27T06:20:32.929Z,7.93
2018-07-27T06:23:01.041Z,8.30
2018-07-27T06:25:29.135Z,7.10
2018-07-27T06:27:57.378Z,7.97
2018-07-27T06:30:25.440Z,7.60
2018-07-27T06:32:53.521Z,7.57
2018-07-27T06:35:21.609Z,8.53
2018-07-27T06:37:49.675Z,7.40
2018-07-27T06:40:17.758Z,8.07
2018-07-27T06:42:45.849Z,7.10
2018-07-27T06:45:13.924Z,7.20
2018-07-27T06:47:42.167Z,6.57
2018-07-27T06:50:10.270Z,7.50
2018-07-27T06:52:38.333Z,7.97
2018-07-27T06:55:06.405Z,7.30
2018-07-27T06:57:34.495Z,7.80
2018-07-27T07:00:02.596Z,7.77
2018-07-27T07:02:30.873Z,7.87
2018-07-27T07:04:58.924Z,6.77
2018-07-27T07:07:26.976Z,6.97
2018-07-27T07:09:55.240Z,6.70
2018-07-27T07:12:23.351Z,7.03
2018-07-27T07:14:51.405Z,6.90
2018-07-27T07:17:19.827Z,6.83
2018-07-27T07:19:47.931Z,7.30
2018-07-27T07:22:16.006Z,6.30
2018-07-27T07:24:44.285Z,6.37
2018-07-27T07:27:12.356Z,6.93
2018-07-27T07:29:40.636Z,6.23
2018-07-27T07:32:08.870Z,6.53
2018-07-27T07:34:36.947Z,7.63
2018-07-27T07:37:05.663Z,7.07
2018-07-27T07:39:33.747Z,7.47
2018-07-27T07:42:01.816Z,7.40
2018-07-27T07:44:29.884Z,6.80
2018-07-27T07:46:57.966Z,6.10
2018-07-27T07:49:26.501Z,6.30
2018-07-27T07:51:54.705Z,6.20
2018-07-27T07:54:22.764Z,6.40
2018-07-27T07:56:50.860Z,6.50
2018-07-27T07:59:18.920Z,6.30
2018-07-27T08:01:47.005Z,6.97
2018-07-27T08:04:15.162Z,5.80
2018-07-27T08:06:43.389Z,5.70
2018-07-27T08:09:11.466Z,5.00
2018-07-27T08:11:39.509Z,5.63
2018-07-27T08:14:07.705Z,6.23
2018-07-27T08:16:35.786Z,5.43
2018-07-27T08:19:03.871Z,5.80
2018-07-27T08:21:32.300Z,5.80
2018-07-27T08:24:00.925Z,5.50
2018-07-27T08:27:15.137Z,5.30
2018-07-27T08:29:44.428Z,5.70
2018-07-27T08:32:12.638Z,5.60
2018-07-27T08:34:40.929Z,5.50
2018-07-27T08:37:09.452Z,5.37
2018-07-27T08:39:39.531Z,5.20
2018-07-27T08:42:07.846Z,6.10
2018-07-27T08:44:37.148Z,4.83
2018-07-27T08:47:05.252Z,4.93
2018-07-27T08:49:33.397Z,5.03
2018-07-27T08:52:01.533Z,5.60
2018-07-27T08:54:29.752Z,5.37
2018-07-27T08:56:57.817Z,4.93
2018-07-27T08:59:25.894Z,4.93
2018-07-27T09:01:54.295Z,5.53
2018-07-27T09:04:22.363Z,5.27
2018-07-27T09:06:50.524Z,5.43
2018-07-27T09:09:19.220Z,5.27
2018-07-27T09:11:47.324Z,5.97
2018-07-27T09:14:15.437Z,4.80
2018-07-27T09:16:43.521Z,4.73
2018-07-27T09:19:11.644Z,5.00
2018-07-27T09:21:41.936Z,5.20
2018-07-27T09:24:10.144Z,5.00
2018-07-27T09:26:38.322Z,5.33
2018-07-27T09:29:06.454Z,5.23
2018-07-27T09:31:34.535Z,5.10
2018-07-27T09:34:02.633Z,5.20
2018-07-27T09:36:31.216Z,5.10
2018-07-27T09:38:59.729Z,5.13
2018-07-27T09:41:27.885Z,5.50
2018-07-27T09:43:56.130Z,5.00
2018-07-27T09:46:24.292Z,5.17
2018-07-27T09:48:53.749Z,5.27
2018-07-27T09:51:23.051Z,5.23
2018-07-27T09:53:51.268Z,5.10
2018-07-27T09:56:19.449Z,5.43
2018-07-27T09:58:47.552Z,5.60
2018-07-27T10:01:21.549Z,5.13
2018-07-27T10:03:49.649Z,5.57
2018-07-27T10:06:17.735Z,5.50
2018-07-27T10:08:45.804Z,5.43
2018-07-27T10:11:13.888Z,5.57
2018-07-27T10:13:41.953Z,5.80
2018-07-27T10:16:10.237Z,5.73
2018-07-27T10:18:38.324Z,5.37
2018-07-27T10:21:06.833Z,5.23
2018-07-27T10:23:34.917Z,5.20
2018-07-27T10:26:03.085Z,5.80
2018-07-27T10:28:31.375Z,5.33
2018-07-27T10:30:59.454Z,6.07
2018-07-27T10:33:27.553Z,5.43
2018-07-27T10:35:55.637Z,5.83
2018-07-27T10:38:23.701Z,5.70
2018-07-27T10:40:51.768Z,6.23
2018-07-27T10:43:19.854Z,6.37
2018-07-27T10:45:47.916Z,6.60
2018-07-27T10:48:15.992Z,5.53
2018-07-27T10:50:44.096Z,5.67
2018-07-27T10:53:12.169Z,5.73
2018-07-27T10:55:40.232Z,7.10
2018-07-27T10:58:08.296Z,5.70
2018-07-27T11:00:36.392Z,6.60
2018-07-27T11:03:04.456Z,5.70
2018-07-27T11:05:32.525Z,6.00
2018-07-27T11:08:00.629Z,5.90
2018-07-27T11:10:29.049Z,6.23
2018-07-27T11:12:57.100Z,5.97
2018-07-27T11:15:25.178Z,6.77
2018-07-27T11:17:53.299Z,5.97
2018-07-27T11:20:21.505Z,6.60
2018-07-27T11:22:49.568Z,5.80
2018-07-27T11:25:17.643Z,5.93
2018-07-27T11:27:45.720Z,6.33
2018-07-27T11:30:13.805Z,6.20
2018-07-27T11:32:42.176Z,6.40
2018-07-27T11:35:10.249Z,6.10
2018-07-27T11:37:38.340Z,6.17
2018-07-27T11:40:06.693Z,6.40
2018-07-27T11:42:34.842Z,5.93
2018-07-27T11:45:03.414Z,5.10
2018-07-27T11:47:31.553Z,5.83
2018-07-27T11:49:59.636Z,6.13
2018-07-27T11:52:27.978Z,5.77
2018-07-27T11:54:56.101Z,5.73
2018-07-27T11:57:24.913Z,5.90
2018-07-27T11:59:53.025Z,5.57
2018-07-27T12:02:21.129Z,6.10
2018-07-27T12:04:49.193Z,6.10
2018-07-27T12:07:17.270Z,5.60
2018-07-27T12:09:45.381Z,5.87
2018-07-27T12:12:13.520Z,5.83
2018-07-27T12:14:41.833Z,6.20
2018-07-27T12:17:10.004Z,5.57
2018-07-27T12:19:38.276Z,6.10
2018-07-27T12:22:06.667Z,6.30
2018-07-27T12:24:34.748Z,5.70
2018-07-27T12:27:02.829Z,5.60
2018-07-27T12:29:31.067Z,5.47
2018-07-27T12:31:59.147Z,5.80
2018-07-27T12:34:27.317Z,5.93
2018-07-27T12:36:55.497Z,6.00
2018-07-27T12:39:23.645Z,5.80
2018-07-27T12:41:51.730Z,5.90
2018-07-27T12:44:19.842Z,6.23
2018-07-27T12:46:47.882Z,5.60
2018-07-27T12:49:16.037Z,6.10
2018-07-27T12:51:44.126Z,5.67
2018-07-27T12:54:12.235Z,5.10
2018-07-27T12:56:40.696Z,5.40
2018-07-27T12:59:09.069Z,6.30
2018-07-27T13:01:37.420Z,6.47
2018-07-27T13:04:05.478Z,6.57
2018-07-27T13:06:33.552Z,5.60
2018-07-27T13:09:01.616Z,5.40
2018-07-27T13:11:29.728Z,5.43
2018-07-27T13:13:57.789Z,5.80
2018-07-27T13:16:25.877Z,5.33
2018-07-27T13:18:53.964Z,4.70
2018-07-27T13:21:22.036Z,5.20
2018-07-27T13:24:01.100Z,5.60
2018-07-27T13:26:29.182Z,5.40
2018-07-27T13:28:57.459Z,4.93
2018-07-27T13:31:34.060Z,5.30
2018-07-27T13:34:08.628Z,5.80
2018-07-27T13:36:36.697Z,4.73
2018-07-27T13:39:06.904Z,6.50
2018-07-27T13:41:34.984Z,5.23
2018-07-27T13:44:03.502Z,6.10
2018-07-27T13:46:31.605Z,6.33
2018-07-27T13:48:59.868Z,5.67
2018-07-27T13:51:27.955Z,5.70
2018-07-27T13:53:56.058Z,6.30
2018-07-27T13:56:24.123Z,6.90
2018-07-27T13:58:52.350Z,6.27
2018-07-27T14:01:20.404Z,6.70
2018-07-27T14:03:48.579Z,6.47
2018-07-27T14:06:16.644Z,6.67
2018-07-27T14:08:44.724Z,7.60
2018-07-27T14:11:12.778Z,7.50
2018-07-27T14:13:41.578Z,6.10
2018-07-27T14:16:09.757Z,6.70
2018-07-27T14:18:37.847Z,6.73
2018-07-27T14:21:05.938Z,6.93
2018-07-27T14:23:34.044Z,7.07
2018-07-27T14:26:02.109Z,7.00
2018-07-27T14:28:30.228Z,6.90
2018-07-27T14:30:58.544Z,6.10
2018-07-27T14:33:26.609Z,7.40
2018-07-27T14:35:54.736Z,6.23
2018-07-27T14:38:22.801Z,6.43
2018-07-27T14:40:51.046Z,6.50
2018-07-27T14:43:19.152Z,6.20
2018-07-27T14:45:47.480Z,6.57
2018-07-27T14:48:15.565Z,6.47
2018-07-27T14:50:43.831Z,5.67
2018-07-27T14:53:12.026Z,6.87
2018-07-27T14:55:40.113Z,6.03
2018-07-27T14:58:08.183Z,6.60
2018-07-27T15:00:36.261Z,6.40
2018-07-27T15:03:04.570Z,6.23
2018-07-27T15:05:32.660Z,5.63
2018-07-27T15:08:00.745Z,5.47
2018-07-27T15:10:28.836Z,5.70
2018-07-27T15:12:56.912Z,5.90
2018-07-27T15:15:25.080Z,6.27
2018-07-27T15:17:53.161Z,6.60
2018-07-27T15:20:21.676Z,6.10
2018-07-27T15:22:49.904Z,6.00
2018-07-27T15:25:18.003Z,5.80
2018-07-27T15:27:46.995Z,6.40
2018-07-27T15:30:15.134Z,6.30
2018-07-27T15:32:43.368Z,6.73
2018-07-27T15:35:11.416Z,6.40
2018-07-27T15:37:39.717Z,5.80
2018-07-27T15:40:07.814Z,6.00
2018-07-27T15:42:36.090Z,6.60
2018-07-27T15:45:04.568Z,6.43
2018-07-27T15:47:32.917Z,6.00
2018-07-27T15:50:01.027Z,6.07
2018-07-27T15:52:29.248Z,6.00
2018-07-27T15:54:57.405Z,6.30
2018-07-27T15:57:25.503Z,5.47
2018-07-27T15:59:53.677Z,5.57
2018-07-27T16:02:21.724Z,5.77
2018-07-27T16:04:49.800Z,6.30
2018-07-27T16:07:17.876Z,6.40
2018-07-27T16:09:45.956Z,7.30
2018-07-27T16:12:14.022Z,6.03
2018-07-27T16:14:42.131Z,7.73
2018-07-27T16:17:10.189Z,6.53
2018-07-27T16:19:38.288Z,6.70
2018-07-27T16:22:06.334Z,5.90
2018-07-27T16:24:34.657Z,6.10
2018-07-27T16:27:02.761Z,5.80
2018-07-27T16:29:30.818Z,6.10
2018-07-27T16:31:58.972Z,6.63
2018-07-27T16:34:27.085Z,5.87
2018-07-27T16:36:55.153Z,6.00
2018-07-27T16:39:23.245Z,5.70
2018-07-27T16:41:51.869Z,5.60
2018-07-27T16:44:19.970Z,5.60
2018-07-27T16:46:48.070Z,5.43
2018-07-27T16:49:16.150Z,7.00
2018-07-27T16:51:44.216Z,5.70
2018-07-27T16:54:12.270Z,5.57
2018-07-27T16:56:40.363Z,5.70
2018-07-27T16:59:08.478Z,6.10
2018-07-27T17:01:36.919Z,5.60
2018-07-27T17:04:05.366Z,6.10
2018-07-27T17:06:33.463Z,5.77
2018-07-27T17:09:01.696Z,5.87
2018-07-27T17:11:29.790Z,7.00
2018-07-27T17:13:57.907Z,8.70
2018-07-27T17:16:26.220Z,5.60
2018-07-27T17:18:54.357Z,5.67
2018-07-27T17:21:22.434Z,5.73
2018-07-27T17:23:50.497Z,5.40
2018-07-27T17:26:18.752Z,5.60
2018-07-27T17:28:47.249Z,5.83
2018-07-27T17:31:15.328Z,5.90
2018-07-27T17:33:43.399Z,6.60
2018-07-27T17:36:11.482Z,7.50
2018-07-27T17:38:39.552Z,7.50
2018-07-27T17:41:08.244Z,6.83
2018-07-27T17:43:36.633Z,9.03
2018-07-27T17:46:05.380Z,9.60
2018-07-27T17:48:33.449Z,7.27
2018-07-27T17:51:01.824Z,6.90
2018-07-27T17:53:29.895Z,8.03
2018-07-27T17:55:58.571Z,7.03
2018-07-27T17:58:26.697Z,6.73
2018-07-27T18:00:54.790Z,7.07
2018-07-27T18:03:23.770Z,6.63
2018-07-27T18:05:51.817Z,6.10
2018-07-27T18:08:19.919Z,6.30
2018-07-27T18:10:48.438Z,6.70
2018-07-27T18:13:16.657Z,7.03
2018-07-27T18:15:44.968Z,7.60
2018-07-27T18:18:13.049Z,6.80
2018-07-27T18:20:41.157Z,6.30
2018-07-27T18:23:09.598Z,6.70
2018-07-27T18:25:37.709Z,7.37
2018-07-27T18:28:06.872Z,6.87
2018-07-27T18:30:35.354Z,7.30
2018-07-27T18:33:03.762Z,6.83
2018-07-27T18:35:31.990Z,7.00
2018-07-27T18:38:00.338Z,6.50
2018-07-27T18:40:28.445Z,6.97
2018-07-27T18:42:56.637Z,11.40
2018-07-27T18:45:24.742Z,7.13
2018-07-27T18:47:53.571Z,6.40
2018-07-27T18:50:21.674Z,7.57
2018-07-27T18:52:50.805Z,7.00
2018-07-27T18:55:18.865Z,6.53
2018-07-27T18:57:46.948Z,7.50
2018-07-27T19:00:15.075Z,6.70
2018-07-27T19:02:43.439Z,6.97
2018-07-27T19:05:11.540Z,7.10
2018-07-27T19:07:39.707Z,7.30
2018-07-27T19:10:08.476Z,7.43
2018-07-27T19:12:37.142Z,6.87
2018-07-27T19:15:06.001Z,12.50
2018-07-27T19:17:34.182Z,8.20
2018-07-27T19:20:02.349Z,7.77
2018-07-27T19:22:30.577Z,7.40
2018-07-27T19:24:58.689Z,7.40
2018-07-27T19:27:26.792Z,8.70
2018-07-27T19:29:54.866Z,7.57
2018-07-27T19:32:23.359Z,7.43
2018-07-27T19:34:51.441Z,7.30
2018-07-27T19:37:19.657Z,7.53
2018-07-27T19:39:47.836Z,8.00
2018-07-27T19:42:15.964Z,7.33
2018-07-27T19:44:44.073Z,9.17
2018-07-27T19:47:12.351Z,7.57
2018-07-27T19:49:40.450Z,7.83
2018-07-27T19:52:08.546Z,7.37
2018-07-27T19:54:36.661Z,7.30
2018-07-27T19:57:05.193Z,6.90
2018-07-27T19:59:33.297Z,8.67
2018-07-27T20:02:01.697Z,7.70
2018-07-27T20:04:29.985Z,7.17
2018-07-27T20:06:58.404Z,7.10
2018-07-27T20:09:26.640Z,7.00
2018-07-27T20:11:55.037Z,7.00
2018-07-27T20:14:23.128Z,7.03
2018-07-27T20:16:51.369Z,6.93
2018-07-27T20:19:19.468Z,7.10
2018-07-27T20:21:47.647Z,8.23
2018-07-27T20:24:15.880Z,7.30
2018-07-27T20:26:44.044Z,7.23
2018-07-27T20:29:12.575Z,7.07
2018-07-27T20:31:40.833Z,7.27
2018-07-27T20:34:09.451Z,7.00
2018-07-27T20:36:37.608Z,7.40
2018-07-27T20:39:07.803Z,7.13
2018-07-27T20:41:35.979Z,7.80
2018-07-27T20:44:04.216Z,7.03
2018-07-27T20:46:32.970Z,7.40
2018-07-27T20:49:01.091Z,7.13
2018-07-27T20:51:29.198Z,6.83
2018-07-27T20:53:57.825Z,7.27
2018-07-27T20:56:26.050Z,6.93
2018-07-27T20:58:54.152Z,7.40
2018-07-27T21:01:22.209Z,6.93
2018-07-27T21:03:50.405Z,7.27
2018-07-27T21:06:18.525Z,7.30
2018-07-27T21:08:47.243Z,6.87
2018-07-27T21:11:15.322Z,7.73
2018-07-27T21:13:43.537Z,12.20
2018-07-27T21:16:11.618Z,9.93
2018-07-27T21:18:39.706Z,8.37
2018-07-27T21:21:07.879Z,7.80
2018-07-27T21:23:35.966Z,6.83
2018-07-27T21:26:04.224Z,13.47
2018-07-27T21:28:32.482Z,8.20
2018-07-27T21:31:00.555Z,7.07
2018-07-27T21:33:28.943Z,7.30
2018-07-27T21:35:57.052Z,7.50
2018-07-27T21:38:25.337Z,7.30
2018-07-27T21:40:53.510Z,7.53
2018-07-27T21:43:21.748Z,7.77
2018-07-27T21:45:50.008Z,9.93
2018-07-27T21:48:18.180Z,7.00
2018-07-27T21:50:46.333Z,7.87
2018-07-27T21:53:14.473Z,7.37
2018-07-27T21:55:42.628Z,6.83
2018-07-27T21:58:10.765Z,8.27
2018-07-27T22:00:39.041Z,7.33
2018-07-27T22:03:07.493Z,7.20
2018-07-27T22:05:35.586Z,8.17
2018-07-27T22:08:03.677Z,7.53
2018-07-27T22:10:31.762Z,8.10
2018-07-27T22:12:59.933Z,9.00
2018-07-27T22:15:28.274Z,8.23
2018-07-27T22:17:56.446Z,8.93
2018-07-27T22:20:25.137Z,7.83
2018-07-27T22:22:53.229Z,8.37
2018-07-27T22:25:21.326Z,9.17
2018-07-27T22:27:49.411Z,9.43
2018-07-27T22:30:17.634Z,8.37
2018-07-27T22:32:45.870Z,9.30
2018-07-27T22:35:13.973Z,9.47
2018-07-27T22:37:42.026Z,9.20
2018-07-27T22:40:11.041Z,9.97
2018-07-27T22:42:39.475Z,8.97
2018-07-27T22:45:08.348Z,9.87
2018-07-27T22:47:36.595Z,9.00
2018-07-27T22:50:05.129Z,9.60
2018-07-27T22:52:40.256Z,9.07
2018-07-27T22:55:10.555Z,8.80
2018-07-27T22:57:39.824Z,9.50
2018-07-27T23:00:09.296Z,9.87
2018-07-27T23:02:37.646Z,9.90
2018-07-27T23:05:06.049Z,9.27
2018-07-27T23:07:34.252Z,8.40
2018-07-27T23:10:02.526Z,9.43
2018-07-27T23:12:30.609Z,9.37
2018-07-27T23:14:58.822Z,8.90
2018-07-27T23:17:27.061Z,9.57
2018-07-27T23:19:55.131Z,9.60
2018-07-27T23:22:23.284Z,9.80
2018-07-27T23:24:51.432Z,9.27
2018-07-27T23:27:20.079Z,10.37
2018-07-27T23:29:48.176Z,10.40
2018-07-27T23:32:16.252Z,9.80
2018-07-27T23:34:44.313Z,9.77
2018-07-27T23:37:12.425Z,9.40
2018-07-27T23:39:40.557Z,10.63
2018-07-27T23:42:08.624Z,10.47
2018-07-27T23:44:36.679Z,9.60
2018-07-27T23:47:04.725Z,9.50
2018-07-27T23:49:32.820Z,9.87
2018-07-27T23:52:00.888Z,11.37
2018-07-27T23:54:29.022Z,10.03
2018-07-27T23:56:57.112Z,10.13
2018-07-27T23:59:25.305Z,9.67
